• Join FlightAware (Why Join?)
  • Login
  • US Flag 
03:15PM EDT


 

Airport Tracker/Info


-or-


 

Live Flight TrackerFlight Track Log ✈ AWE3327 ✈ 18-Apr-2013 ✈ KDCA - KSRQ

Flight Track Log - Related Links

Times and Time Zones

All times are in EDT time to prevent confusion due to time zone crossing. See the AWE3327 flight status page for this flight to view local times or setup timezone preferences in your user account.

Time Position Orientation Groundspeed Altitude Reporting Facility
EDT Latitude Longitude Course Direction KTS MPH feet Rate Location/Type
09:55AM 38.8089 -77.0383 233° Southwest 155 178 2,000  Level Washington Center
09:55AM 38.7833 -77.0333 171° South 187 215 2,900 1,980 Climbing Potomac TRACON
09:56AM 38.7333 -77.0500 195° South 242 278 4,900 1,020 Climbing Potomac TRACON
09:57AM 38.7167 -77.1333 256° West 258 297 5,000 900 Climbing Potomac TRACON
09:58AM 38.3375 -77.6265 233° Southwest  Level FlightAware Approximate
09:58AM 38.7000 -77.2333 258° West 266 306 6,900  Level Potomac TRACON
09:59AM 38.2249 -77.7979 233° Southwest  Level FlightAware Approximate
10:00AM 38.1200 -77.9776 233° Southwest  Level FlightAware Approximate
10:01AM 38.5769 -77.3894 225° Southwest 271 312 12,000  Level Washington Center
10:02AM 38.5069 -77.4594 218° Southwest 297 342 14,600 2,520 Climbing Washington Center
10:03AM 38.4328 -77.5319 217° Southwest 326 375 17,100 2,160 Climbing Washington Center
10:04AM 38.3625 -77.6175 224° Southwest 333 383 19,000 1,980 Climbing Washington Center
10:05AM 38.3025 -77.7164 232° Southwest 347 399 21,100 2,040 Climbing Washington Center
10:06AM 38.2361 -77.8150 229° Southwest 368 423 23,100 1,800 Climbing Washington Center
10:07AM 38.1694 -77.9186 231° Southwest 380 437 24,800 1,680 Climbing Washington Center
10:08AM 38.1006 -78.0247 230° Southwest 385 443 26,500 1,560 Climbing Washington Center
10:09AM 38.0317 -78.1278 230° Southwest 385 443 28,000 1,260 Climbing Washington Center
10:10AM 37.9528 -78.2175 222° Southwest 385 443 29,100 960 Climbing Washington Center
10:11AM 37.8589 -78.3061 217° Southwest 400 460 30,000 1,020 Climbing Washington Center
10:12AM 37.7672 -78.3894 216° Southwest 412 474 31,200 1,200 Climbing Washington Center
10:13AM 37.6650 -78.4881 217° Southwest 418 481 32,500 1,140 Climbing Washington Center
10:14AM 37.5731 -78.5711 216° Southwest 418 481 33,500 720 Climbing Washington Center
10:15AM 37.4833 -78.6564 217° Southwest 418 481 34,000 240 Climbing Washington Center
10:16AM 37.3914 -78.7417 216° Southwest 418 481 34,000  Level Washington Center
10:17AM 37.2994 -78.8242 216° Southwest 412 474 34,000  Level Washington Center
10:18AM 37.2181 -78.9042 218° Southwest 412 474 34,000  Level Washington Center
10:19AM 37.1281 -78.9889 217° Southwest 417 480 34,000  Level Washington Center
10:20AM 37.0361 -79.0733 216° Southwest 417 480 34,000  Level Washington Center
10:21AM 36.9417 -79.1572 215° Southwest 417 480 34,000  Level Washington Center
10:22AM 36.8514 -79.2439 218° Southwest 417 480 34,000  Level Washington Center
10:24AM 36.6231 -79.4475 216° Southwest 411 473 34,000  Level Atlanta Center
10:25AM 36.5303 -79.5331 217° Southwest 411 473 34,000  Level Atlanta Center
10:26AM 36.4394 -79.6156 216° Southwest 416 479 34,000  Level Atlanta Center
10:27AM 36.3406 -79.7058 216° Southwest 416 479 34,000  Level Atlanta Center
10:28AM 36.2478 -79.7933 217° Southwest 422 486 34,000  Level Atlanta Center
10:29AM 36.1439 -79.8733 212° Southwest 427 491 34,000  Level Atlanta Center
10:30AM 36.0375 -79.9278 202° Southwest 422 486 34,000  Level Atlanta Center
10:31AM 35.9389 -79.9789 203° Southwest 427 491 34,000  Level Atlanta Center
10:32AM 35.8300 -80.0303 201° Southwest 427 491 34,000  Level Atlanta Center
10:33AM 35.7194 -80.0894 203° Southwest 427 491 34,000  Level Atlanta Center
10:34AM 35.5983 -80.1542 203° Southwest 432 497 34,000  Level Atlanta Center
10:35AM 35.5019 -80.2019 202° Southwest 432 497 34,000  Level Atlanta Center
10:36AM 35.3908 -80.2581 202° Southwest 425 489 34,000  Level Atlanta Center
10:37AM 35.2842 -80.3114 202° Southwest 425 489 34,000  Level Atlanta Center
10:39AM 35.0575 -80.4228 202° Southwest 435 501 34,000  Level Jacksonville Center
10:40AM 34.9481 -80.4764 202° Southwest 427 491 34,000  Level Jacksonville Center
10:41AM 34.8386 -80.5303 202° Southwest 427 491 34,000  Level Jacksonville Center
10:42AM 34.7353 -80.5861 204° Southwest 422 486 34,000  Level Jacksonville Center
10:43AM 34.6236 -80.6394 201° Southwest 422 486 34,000  Level Jacksonville Center
10:44AM 34.4975 -80.7033 203° Southwest 441 507 34,000  Level Jacksonville Center
10:45AM 34.3900 -80.7564 202° Southwest 444 511 34,000  Level Jacksonville Center
10:46AM 34.2803 -80.8042 200° South 438 504 34,000  Level Jacksonville Center
10:47AM 34.1850 -80.8542 203° Southwest 418 481 34,000  Level Jacksonville Center
10:48AM 34.0753 -80.9069 202° Southwest 418 481 34,000  Level Jacksonville Center
10:49AM 33.9636 -80.9619 202° Southwest 424 488 34,000  Level Jacksonville Center
10:50AM 33.8517 -81.0144 201° Southwest 434 499 34,000  Level Jacksonville Center
10:51AM 33.7378 -81.0694 202° Southwest 439 505 34,000  Level Jacksonville Center
10:52AM 33.6194 -81.1267 202° Southwest 451 519 34,000  Level Jacksonville Center
10:53AM 33.5033 -81.1814 201° Southwest 451 519 34,000  Level Jacksonville Center
10:54AM 33.3853 -81.2383 202° Southwest 451 519 34,000  Level Jacksonville Center
10:55AM 33.2669 -81.2928 201° Southwest 451 519 34,000  Level Jacksonville Center
10:56AM 33.1486 -81.3494 202° Southwest 451 519 34,000  Level Jacksonville Center
10:57AM 33.0303 -81.4033 201° Southwest 451 519 34,000  Level Jacksonville Center
10:58AM 32.9142 -81.4597 202° Southwest 451 519 34,000  Level Jacksonville Center
10:59AM 32.7811 -81.5186 200° South 451 519 34,000 300 Level Jacksonville Center
11:00AM 32.6650 -81.5772 203° Southwest 451 519 34,600 600 Climbing Jacksonville Center
11:01AM 32.5569 -81.6256 201° Southwest 451 519 35,200 600 Climbing Jacksonville Center
11:02AM 32.4281 -81.6867 202° Southwest 451 519 35,900 360 Climbing Jacksonville Center
11:03AM 32.3178 -81.7372 201° Southwest 456 525 36,000  Climbing Jacksonville Center
11:04AM 32.1869 -81.7978 201° Southwest 456 525 36,000  Level Jacksonville Center
11:05AM 32.0703 -81.8481 200° South 462 532 36,000  Level Jacksonville Center
11:06AM 31.9622 -81.8983 202° Southwest 462 532 36,000  Level Jacksonville Center
11:07AM 31.8292 -81.9608 202° Southwest 462 532 36,000  Level Jacksonville Center
11:08AM 31.7147 -82.0108 200° South 455 524 36,000  Level Jacksonville Center
11:09AM 31.5939 -82.0681 202° Southwest 460 529 36,000  Level Jacksonville Center
11:10AM 31.4772 -82.1203 201° Southwest 455 524 36,000  Level Jacksonville Center
11:11AM 31.3689 -82.1675 200° South 461 531 36,000  Level Jacksonville Center
11:12AM 31.2481 -82.2219 201° Southwest 461 531 36,000  Level Jacksonville Center
11:13AM 31.1294 -82.2736 200° South 461 531 36,000  Level Jacksonville Center
11:14AM 31.0022 -82.3303 201° Southwest 461 531 36,000  Level Jacksonville Center
11:15AM 30.8794 -82.3842 201° Southwest 461 531 36,000  Level Jacksonville Center
11:16AM 30.7583 -82.4381 201° Southwest 461 531 36,000  Level Jacksonville Center
11:17AM 30.6356 -82.4942 201° Southwest 466 536 36,000  Level Jacksonville Center
11:18AM 30.5125 -82.5381 197° South 466 536 36,000  Level Jacksonville Center
11:19AM 30.3767 -82.5072 169° South 461 531 36,000  Level Jacksonville Center
11:20AM 30.2469 -82.4597 162° South 467 537 36,000 -300 Level Jacksonville Center
11:21AM 30.1153 -82.4172 164° South 479 551 35,500 -1,560 Descending Jacksonville Center
11:22AM 29.9856 -82.3722 163° South 490 564 32,900 -2,640 Descending Jacksonville Center
11:23AM 29.8561 -82.3275 163° South 490 564 30,300 -2,580 Descending Jacksonville Center
11:24AM 29.7328 -82.2850 163° South 490 564 27,800 -2,400 Descending Jacksonville Center
11:25AM 29.6156 -82.2594 169° South 453 521 25,500 -2,220 Descending Jacksonville Center
11:26AM 29.5050 -82.2436 173° South 424 488 23,400 -1,260 Descending Jacksonville Center
11:27AM 29.3983 -82.2300 174° South 401 461 23,000 -300 Descending Jacksonville Center
11:28AM 29.2919 -82.2117 171° South 395 455 22,900 -780 Descending Jacksonville Center
11:29AM 29.1978 -82.1981 173° South 390 449 21,500 -1,560 Descending Jacksonville Center
11:30AM 29.0914 -82.1822 173° South 385 443 19,800 -1,680 Descending Jacksonville Center
11:31AM 28.9911 -82.1686 173° South 380 437 18,200 -1,620 Descending Jacksonville Center
11:34AM 28.7833 -82.1333 172° South 337 388 14,700 -1,560 Descending Tampa TRACON
11:35AM 28.6833 -82.1167 172° South 330 380 13,200 -1,500 Descending Tampa TRACON
11:36AM 28.6000 -82.1000 170° South 326 375 11,900 -1,200 Descending Tampa TRACON
11:37AM 28.5167 -82.1000 180° South 316 364 11,000 -480 Descending Tampa TRACON
11:37AM 28.4333 -82.1167 190° South 317 365 11,000  Level Tampa TRACON
11:38AM 28.3500 -82.1333 190° South 313 360 11,000  Level Tampa TRACON
11:39AM 28.2667 -82.1500 190° South 291 335 11,000  Level Tampa TRACON
11:40AM 28.1833 -82.1500 180° South 290 334 11,000  Level Tampa TRACON
11:41AM 28.1000 -82.1667 190° South 290 334 11,000 -120 Level Tampa TRACON
11:42AM 28.0333 -82.1833 192° South 290 334 10,800 -960 Descending Tampa TRACON
11:44AM 27.9500 -82.2000 190° South 288 331 9,100 -1,500 Descending Tampa TRACON
11:45AM 27.8667 -82.2167 190° South 278 320 7,700 -1,440 Descending Tampa TRACON
11:46AM 27.7833 -82.2167 180° South 278 320 6,200 -840 Descending Tampa TRACON
11:47AM 27.7167 -82.2833 222° Southwest 267 307 6,000 -120 Descending Tampa TRACON
11:48AM 27.6667 -82.3333 222° Southwest 270 311 6,000  Level Tampa TRACON
11:49AM 27.6167 -82.3833 222° Southwest 245 282 6,000 -600 Level Tampa TRACON
11:50AM 27.5833 -82.4500 241° Southwest 247 284 4,900 -1,380 Descending Tampa TRACON
11:51AM 27.5500 -82.5167 241° Southwest 241 277 3,400 -1,500 Descending Tampa TRACON